createdAt,value
2022-10-16T06:31:16.712Z,14.06
2022-10-16T06:39:41.237Z,14.19
2022-10-16T06:42:10.760Z,14.19
2022-10-16T06:44:41.959Z,14.25
2022-10-16T10:23:04.972Z,15.88
2022-10-16T10:25:55.500Z,15.88
2022-10-16T10:29:05.891Z,15.81
2022-10-16T10:31:51.917Z,15.75
2022-10-16T10:34:31.678Z,15.88
2022-10-16T10:37:39.698Z,15.75
2022-10-16T10:40:51.100Z,15.75
2022-10-16T10:50:15.827Z,15.63
2022-10-16T10:53:03.121Z,15.69
2022-10-16T10:55:45.333Z,15.69
2022-10-16T10:58:53.153Z,15.63
2022-10-16T11:02:17.404Z,15.56
2022-10-16T11:05:15.339Z,15.50
2022-10-16T11:32:24.469Z,15.88
2022-10-16T11:35:14.266Z,15.81
2022-10-16T11:37:52.295Z,15.75
2022-10-16T11:43:57.077Z,15.94
2022-10-16T12:22:32.924Z,16.50
2022-10-16T12:28:00.728Z,16.50
2022-10-16T12:33:37.526Z,16.50
2022-10-16T12:36:32.366Z,16.50
2022-10-16T12:39:01.060Z,16.56
2022-10-16T13:00:15.889Z,16.69
2022-10-16T13:03:35.780Z,16.75
2022-10-16T13:06:29.236Z,16.81
2022-10-16T13:12:01.210Z,16.81
2022-10-16T13:14:35.441Z,16.75
2022-10-16T13:17:32.048Z,16.81
2022-10-16T13:20:59.125Z,16.88
2022-10-16T13:24:30.520Z,16.81
2022-10-16T13:27:56.850Z,16.81
2022-10-16T13:37:04.320Z,16.75
2022-10-16T13:39:35.960Z,16.81
2022-10-16T13:42:27.776Z,16.94
2022-10-16T13:44:59.553Z,17.06
2022-10-16T13:47:31.738Z,17.06
2022-10-16T13:50:07.800Z,17.06
2022-10-16T13:55:31.149Z,17.13
2022-10-16T13:58:16.593Z,17.13
2022-10-16T14:01:02.581Z,17.19
2022-10-16T14:03:34.795Z,17.25
2022-10-16T14:06:07.347Z,17.25
2022-10-16T14:08:36.939Z,17.31
2022-10-16T14:11:06.470Z,17.25
2022-10-16T14:13:59.649Z,17.25
2022-10-16T14:16:47.249Z,17.25
2022-10-16T14:19:34.122Z,17.19
2022-10-16T14:22:10.565Z,17.13
2022-10-16T14:27:39.248Z,17.13
2022-10-16T14:30:09.693Z,17.06
2022-10-16T14:32:44.730Z,17.06
2022-10-16T14:35:42.165Z,17.06
2022-10-16T14:38:29.334Z,17.06
2022-10-16T14:41:02.755Z,17.06
2022-10-16T14:43:52.526Z,17.06
2022-10-16T14:49:31.197Z,17.00
2022-10-16T14:52:02.342Z,16.94
2022-10-16T14:54:31.129Z,16.88
2022-10-16T14:57:00.502Z,16.94
2022-10-16T14:59:37.224Z,16.88
2022-10-16T15:05:28.213Z,16.81
2022-10-16T15:07:59.735Z,16.75
2022-10-16T15:10:33.458Z,16.75
2022-10-16T15:13:13.477Z,16.63
2022-10-16T15:15:47.622Z,16.56
2022-10-16T15:18:32.340Z,16.56
2022-10-16T15:21:14.204Z,16.44
2022-10-16T15:26:34.808Z,16.44
2022-10-16T15:29:02.501Z,16.38
2022-10-16T15:31:41.830Z,16.38
2022-10-16T15:40:08.289Z,16.13
2022-10-16T15:42:37.068Z,16.06
2022-10-16T15:45:07.286Z,15.94
2022-10-16T15:47:35.494Z,16.00
2022-10-16T16:06:09.112Z,15.69
2022-10-16T16:20:51.086Z,15.63
2022-10-16T16:36:42.968Z,15.44
2022-10-16T16:54:42.669Z,15.38
